Navajo State Park, Colorado
Current Conditions -  °F | °C
As of 11:35 AM on Saturday 25 Oct 2014 (Local Time) from KPSO Reporting Station
Clear Clear  
Wind Chill: 63°   Ceiling: Unl
Heat Index: 63°   Visibility: 10mi
Dew Point: 29°   Wind: 0mph
Humidity: 28%   Direction: NA
Pressure: 30.42"   Gusts: NA
Location:  37.2292°N, 107.329°W
Report Text: KPSO 251735Z AUTO 00000KT 10SM CLR 17/M02 A3042 RMK AO2 T01711018
Loading
Personal Weather Stations






























Interactive Weather Map
Tropical Storm Tracking
New forecast layout! Learn more

10-Day Weather Forecast

Advertisements
Track Severe Weather on mobile